Time;durP1;ratioP1;P1;durP2;ratioP2;P2;SDS_P1;SDS_P2;PMS_P1;PMS_P2;Temp;Humidity;BMP_temperature;BMP_pressure;BME280_temperature;BME280_humidity;BME280_pressure;Samples;Min_cycle;Max_cycle;Signal;HPM_P1;HPM_P2
2021/06/18 00:01:12;;;;;;;12.63;11.53;;;21.00;99.90;;;;;;5115813;28;20446;-56
2021/06/18 00:03:39;;;;;;;12.53;11.27;;;21.00;99.90;;;;;;5116229;28;20630;-56
2021/06/18 00:06:06;;;;;;;11.73;10.73;;;21.10;99.90;;;;;;5115863;28;20462;-55
2021/06/18 00:08:35;;;;;;;11.40;10.43;;;21.00;99.90;;;;;;5114835;28;20414;-55
2021/06/18 00:11:03;;;;;;;11.97;10.97;;;21.10;99.90;;;;;;5115465;28;20416;-56
2021/06/18 00:13:30;;;;;;;10.63;9.80;;;20.80;99.90;;;;;;5114579;28;20664;-56
2021/06/18 00:15:57;;;;;;;11.90;10.80;;;20.80;99.90;;;;;;5116829;28;20511;-55
2021/06/18 00:18:24;;;;;;;10.80;9.87;;;20.80;99.90;;;;;;5116462;28;20500;-54
2021/06/18 00:20:51;;;;;;;11.47;10.57;;;20.80;99.90;;;;;;5116970;28;20819;-55
2021/06/18 00:23:19;;;;;;;12.17;10.97;;;20.00;99.90;;;;;;5111630;28;20414;-53
2021/06/18 00:25:46;;;;;;;11.80;10.70;;;20.70;99.90;;;;;;5115201;27;20417;-58
2021/06/18 00:28:13;;;;;;;11.77;10.67;;;20.80;99.90;;;;;;5114970;28;20452;-53
2021/06/18 00:30:41;;;;;;;11.63;10.70;;;20.80;99.90;;;;;;5115544;28;20465;-59
2021/06/18 00:33:09;;;;;;;11.30;10.20;;;20.70;99.90;;;;;;5117106;28;20446;-55
2021/06/18 00:35:36;;;;;;;10.27;9.20;;;20.70;99.90;;;;;;5116021;28;20405;-57
2021/06/18 00:38:03;;;;;;;11.33;10.17;;;20.30;99.90;;;;;;5112912;28;20780;-53
2021/06/18 00:40:31;;;;;;;11.10;10.00;;;20.60;99.90;;;;;;5111984;28;20422;-52
2021/06/18 00:42:58;;;;;;;11.07;10.10;;;20.60;99.90;;;;;;5114914;28;20574;-52
2021/06/18 00:45:25;;;;;;;10.83;9.83;;;20.60;99.90;;;;;;5115156;27;20420;-59
2021/06/18 00:47:58;;;;;;;10.50;9.70;;;20.60;99.90;;;;;;5113722;28;20464;-56
2021/06/18 00:50:27;;;;;;;12.60;11.63;;;20.50;99.90;;;;;;5113856;28;20417;-57
2021/06/18 00:52:54;;;;;;;11.50;10.33;;;20.50;99.90;;;;;;5110718;28;20413;-56
2021/06/18 00:55:22;;;;;;;12.00;10.70;;;20.40;99.90;;;;;;5113761;28;20420;-55
2021/06/18 00:57:50;;;;;;;10.93;9.97;;;20.40;99.90;;;;;;5116762;28;20523;-54
2021/06/18 01:00:19;;;;;;;11.43;10.27;;;20.30;99.90;;;;;;5114116;28;20808;-57
2021/06/18 01:02:47;;;;;;;11.57;10.57;;;20.10;99.90;;;;;;5114062;28;20439;-56
2021/06/18 01:05:16;;;;;;;13.23;10.47;;;20.10;99.90;;;;;;5114949;28;20487;-55
2021/06/18 01:07:59;;;;;;;11.00;10.03;;;20.20;99.90;;;;;;5115531;28;20470;-53
2021/06/18 01:10:32;;;;;;;11.93;10.83;;;20.20;99.90;;;;;;5116572;28;20416;-56
2021/06/18 01:13:26;;;;;;;11.20;10.27;;;20.10;99.90;;;;;;5114145;28;20413;-57
2021/06/18 01:16:05;;;;;;;10.30;9.40;;;20.00;99.90;;;;;;5088420;28;20412;-56
2021/06/18 01:18:53;;;;;;;11.67;10.63;;;20.00;99.90;;;;;;5113873;28;20416;-56
2021/06/18 01:21:30;;;;;;;10.77;9.87;;;20.00;99.90;;;;;;5115417;28;20469;-56
2021/06/18 01:24:18;;;;;;;11.80;10.87;;;20.00;99.90;;;;;;5113834;28;20416;-54
2021/06/18 01:27:10;;;;;;;11.20;10.10;;;19.90;99.90;;;;;;5113200;28;20540;-57
2021/06/18 01:29:49;;;;;;;9.60;8.90;;;20.00;99.90;;;;;;5114462;28;20442;-52
2021/06/18 01:32:51;;;;;;;11.97;10.93;;;20.00;99.90;;;;;;5114839;28;20720;-55
2021/06/18 01:35:20;;;;;;;10.87;9.90;;;19.90;99.90;;;;;;5099810;28;20767;-56
2021/06/18 01:37:54;;;;;;;11.20;10.07;;;19.80;99.90;;;;;;5116017;28;20417;-55
2021/06/18 01:40:24;;;;;;;11.10;10.20;;;19.70;99.90;;;;;;5113677;28;20423;-56
2021/06/18 01:42:51;;;;;;;11.67;10.57;;;19.80;99.90;;;;;;5113346;28;20600;-57
2021/06/18 01:45:20;;;;;;;11.93;10.83;;;19.70;99.90;;;;;;5112993;28;20428;-56
2021/06/18 01:47:47;;;;;;;12.03;10.83;;;19.60;99.90;;;;;;5115088;28;20677;-57
2021/06/18 01:50:17;;;;;;;11.13;10.13;;;19.60;99.90;;;;;;5114727;28;20408;-57
2021/06/18 01:52:51;;;;;;;12.17;10.97;;;19.60;99.90;;;;;;5118610;28;20438;-54
2021/06/18 01:55:24;;;;;;;12.33;11.20;;;19.60;99.90;;;;;;5119710;28;20469;-54
2021/06/18 01:57:55;;;;;;;13.03;11.73;;;19.50;99.90;;;;;;5119510;28;20623;-55
2021/06/18 02:00:23;;;;;;;12.03;10.93;;;19.50;99.90;;;;;;5119425;28;20530;-51
2021/06/18 02:02:51;;;;;;;12.13;11.13;;;19.50;99.90;;;;;;5119571;28;20417;-52
2021/06/18 02:05:20;;;;;;;13.20;12.00;;;19.30;99.90;;;;;;5119287;28;20477;-57
2021/06/18 02:07:51;;;;;;;13.10;11.90;;;19.30;99.90;;;;;;5119838;28;20455;-52
2021/06/18 02:10:19;;;;;;;12.60;11.60;;;19.30;99.90;;;;;;5116204;28;20442;-56
2021/06/18 02:12:48;;;;;;;12.00;11.10;;;19.30;99.90;;;;;;5116440;28;20445;-59
2021/06/18 02:15:17;;;;;;;11.93;10.67;;;19.20;99.90;;;;;;5117513;28;20423;-55
2021/06/18 02:17:46;;;;;;;12.03;10.90;;;18.20;99.90;;;;;;5116478;28;20489;-56
2021/06/18 02:20:15;;;;;;;11.70;10.70;;;19.20;99.90;;;;;;5117931;28;20461;-58
2021/06/18 02:22:46;;;;;;;11.50;10.40;;;19.20;99.90;;;;;;5114619;28;20412;-56
2021/06/18 02:25:15;;;;;;;12.53;10.30;;;19.00;99.90;;;;;;5117636;28;20487;-55
2021/06/18 02:27:43;;;;;;;11.50;10.50;;;19.00;99.90;;;;;;5114637;28;20514;-54
2021/06/18 02:30:16;;;;;;;12.53;11.37;;;19.10;99.90;;;;;;5118567;27;20433;-54
2021/06/18 02:32:46;;;;;;;11.63;10.60;;;19.00;99.90;;;;;;5118308;28;20597;-55
2021/06/18 02:35:13;;;;;;;11.50;10.57;;;19.00;99.90;;;;;;5118167;28;20460;-52
2021/06/18 02:37:41;;;;;;;12.13;11.03;;;19.10;99.90;;;;;;5116546;28;20424;-55
2021/06/18 02:40:09;;;;;;;12.10;10.83;;;19.10;99.90;;;;;;5116969;28;20492;-55
2021/06/18 02:42:37;;;;;;;12.63;11.50;;;19.00;99.90;;;;;;5118609;28;20412;-56
2021/06/18 02:45:05;;;;;;;12.37;11.20;;;19.00;99.90;;;;;;5117850;28;20678;-56
2021/06/18 02:47:49;;;;;;;10.93;10.03;;;19.00;99.90;;;;;;5117843;28;20497;-52
2021/06/18 02:50:28;;;;;;;12.60;11.50;;;19.00;99.90;;;;;;5117420;28;20411;-56
2021/06/18 02:53:25;;;;;;;12.53;11.43;;;19.00;99.90;;;;;;5116616;28;20457;-57
2021/06/18 02:55:57;;;;;;;12.90;11.70;;;19.00;99.90;;;;;;5112023;28;21019;-53
2021/06/18 02:58:32;;;;;;;13.30;11.80;;;18.90;99.90;;;;;;5112045;28;20432;-55
2021/06/18 03:01:03;;;;;;;13.57;12.20;;;18.80;99.90;;;;;;5117336;28;20444;-56
2021/06/18 03:03:38;;;;;;;11.30;10.17;;;18.80;99.90;;;;;;5112793;28;20473;-57
2021/06/18 03:06:07;;;;;;;11.50;10.50;;;18.90;99.90;;;;;;5115584;28;20445;-57
2021/06/18 03:08:38;;;;;;;12.77;11.73;;;19.00;99.90;;;;;;5114551;28;20455;-58
2021/06/18 03:11:06;;;;;;;12.83;11.53;;;19.00;99.90;;;;;;5115788;28;20756;-55
2021/06/18 03:13:39;;;;;;;11.90;11.00;;;19.00;99.90;;;;;;5117400;28;20481;-57
2021/06/18 03:16:10;;;;;;;11.97;10.80;;;19.10;99.90;;;;;;5113776;28;20695;-51
2021/06/18 03:18:40;;;;;;;11.53;10.57;;;19.10;99.90;;;;;;5115108;28;20417;-53
2021/06/18 03:21:11;;;;;;;13.07;11.90;;;19.10;99.90;;;;;;5114565;28;20747;-55
2021/06/18 03:23:40;;;;;;;12.47;11.27;;;19.20;99.90;;;;;;5115696;28;20417;-55
2021/06/18 03:26:08;;;;;;;13.43;12.13;;;19.30;99.90;;;;;;5116331;28;20780;-55
2021/06/18 03:28:37;;;;;;;14.03;12.93;;;19.50;99.90;;;;;;5117790;28;20728;-55
2021/06/18 03:31:07;;;;;;;12.50;10.20;;;19.70;99.90;;;;;;5115332;28;20447;-54
2021/06/18 03:33:35;;;;;;;13.03;11.77;;;20.00;99.90;;;;;;5117506;28;20479;-56
2021/06/18 03:36:04;;;;;;;12.10;11.00;;;20.30;99.90;;;;;;5114648;28;20446;-54
2021/06/18 03:38:32;;;;;;;13.07;11.87;;;20.80;99.90;;;;;;5117367;28;20773;-54
2021/06/18 03:41:00;;;;;;;12.90;11.90;;;21.20;99.90;;;;;;5116559;27;20437;-55
2021/06/18 03:43:28;;;;;;;11.97;10.97;;;21.50;99.70;;;;;;5118060;28;20438;-57
2021/06/18 03:46:01;;;;;;;14.07;12.63;;;21.60;99.10;;;;;;5117445;28;20410;-56
2021/06/18 03:48:29;;;;;;;12.87;11.53;;;21.90;98.60;;;;;;5114092;28;20454;-56
2021/06/18 03:50:57;;;;;;;12.37;11.37;;;21.90;98.40;;;;;;5116296;28;20467;-55
2021/06/18 03:53:24;;;;;;;13.00;11.70;;;22.10;98.50;;;;;;5114659;28;20479;-56
2021/06/18 03:55:51;;;;;;;12.00;11.07;;;22.20;98.00;;;;;;5117235;28;20511;-55
2021/06/18 03:58:21;;;;;;;12.90;11.80;;;21.90;98.30;;;;;;5114114;28;20468;-51
2021/06/18 04:00:50;;;;;;;11.83;11.03;;;21.90;98.40;;;;;;5117196;28;20481;-54
2021/06/18 04:03:20;;;;;;;13.00;11.53;;;21.90;98.40;;;;;;5113075;28;20427;-53
2021/06/18 04:05:51;;;;;;;13.33;12.30;;;21.80;98.30;;;;;;5113742;28;20794;-55
2021/06/18 04:08:23;;;;;;;12.90;11.67;;;21.70;98.70;;;;;;5114350;28;20549;-55
2021/06/18 04:10:50;;;;;;;14.43;13.23;;;21.60;98.60;;;;;;5116921;28;20402;-58
2021/06/18 04:13:17;;;;;;;13.87;12.67;;;21.60;98.80;;;;;;5117322;27;20505;-56
2021/06/18 04:15:47;;;;;;;13.30;12.00;;;21.50;98.80;;;;;;5111871;28;20762;-55
2021/06/18 04:18:23;;;;;;;13.10;12.07;;;21.40;99.00;;;;;;5114378;28;20487;-55
2021/06/18 04:20:51;;;;;;;12.57;11.47;;;21.50;98.90;;;;;;5114670;28;20606;-55
2021/06/18 04:23:20;;;;;;;12.57;11.47;;;21.60;98.70;;;;;;5117139;28;20438;-55
2021/06/18 04:25:47;;;;;;;12.47;11.27;;;21.50;98.80;;;;;;5112760;28;20436;-55
2021/06/18 04:28:14;;;;;;;14.03;12.53;;;21.60;98.80;;;;;;5115980;28;20454;-57
2021/06/18 04:30:41;;;;;;;13.03;12.10;;;21.60;98.60;;;;;;5115275;28;20446;-57
2021/06/18 04:33:08;;;;;;;12.77;11.60;;;21.50;98.80;;;;;;5115187;28;20416;-57
2021/06/18 04:35:36;;;;;;;14.13;12.83;;;21.60;98.60;;;;;;5111110;28;20411;-56
2021/06/18 04:38:03;;;;;;;13.10;11.80;;;21.70;98.40;;;;;;5111363;28;20612;-57
2021/06/18 04:40:31;;;;;;;12.07;10.97;;;21.80;98.30;;;;;;5113348;27;20647;-57
2021/06/18 04:42:59;;;;;;;14.77;11.60;;;21.80;98.30;;;;;;5112449;28;20802;-57
2021/06/18 04:45:26;;;;;;;12.03;11.00;;;21.70;98.80;;;;;;5114777;28;20477;-55
2021/06/18 04:47:55;;;;;;;12.43;11.23;;;21.70;98.70;;;;;;5114346;28;20466;-55
2021/06/18 04:50:27;;;;;;;12.87;11.67;;;21.70;98.70;;;;;;5116543;28;20458;-57
2021/06/18 04:52:54;;;;;;;11.70;10.50;;;21.70;98.60;;;;;;5066145;28;20620;-55
2021/06/18 04:55:22;;;;;;;12.97;11.87;;;21.70;98.80;;;;;;5097524;28;20422;-55
2021/06/18 04:57:49;;;;;;;14.30;13.13;;;21.80;99.10;;;;;;5106190;28;20410;-56
2021/06/18 05:00:17;;;;;;;14.27;12.93;;;21.90;98.50;;;;;;5113450;28;20471;-56
2021/06/18 05:02:44;;;;;;;14.43;13.07;;;21.90;98.50;;;;;;5109885;28;20413;-56
2021/06/18 05:05:12;;;;;;;12.80;11.70;;;22.00;98.60;;;;;;5111582;28;20441;-56
2021/06/18 05:07:39;;;;;;;13.30;12.20;;;22.10;98.30;;;;;;5115466;28;20812;-56
2021/06/18 05:10:09;;;;;;;19.53;12.77;;;22.20;98.30;;;;;;5113852;28;20446;-55
2021/06/18 05:12:37;;;;;;;13.17;12.00;;;22.30;98.00;;;;;;5115664;28;20420;-55
2021/06/18 05:15:05;;;;;;;15.60;13.07;;;22.20;98.20;;;;;;5110896;28;20788;-55
2021/06/18 05:17:32;;;;;;;13.90;12.47;;;22.30;98.00;;;;;;5113953;28;20491;-54
2021/06/18 05:19:59;;;;;;;13.57;12.30;;;22.50;97.90;;;;;;5112198;28;20441;-58
2021/06/18 05:22:26;;;;;;;12.17;11.37;;;22.60;97.60;;;;;;5113237;28;20444;-56
2021/06/18 05:24:53;;;;;;;14.77;13.47;;;22.70;97.30;;;;;;5114023;28;20668;-57
2021/06/18 05:27:20;;;;;;;13.80;12.70;;;22.70;97.20;;;;;;5113062;28;20446;-55
2021/06/18 05:29:47;;;;;;;12.90;11.80;;;22.60;97.10;;;;;;5114903;28;20527;-55
2021/06/18 05:32:16;;;;;;;14.80;13.60;;;22.80;97.30;;;;;;5115022;28;20495;-56
2021/06/18 05:34:45;;;;;;;15.07;13.30;;;23.00;96.80;;;;;;5115627;28;20437;-56
2021/06/18 05:37:13;;;;;;;16.10;14.60;;;23.10;96.70;;;;;;5115822;28;20441;-55
2021/06/18 05:39:42;;;;;;;13.63;12.43;;;23.30;96.40;;;;;;5114946;28;20442;-56
2021/06/18 05:42:12;;;;;;;13.20;12.20;;;23.30;96.50;;;;;;5113661;28;20438;-54
2021/06/18 05:44:39;;;;;;;15.40;13.97;;;23.40;96.20;;;;;;5113022;28;20442;-55
2021/06/18 05:47:07;;;;;;;13.93;12.83;;;23.50;95.90;;;;;;5113787;28;20598;-55
2021/06/18 05:49:35;;;;;;;15.57;14.17;;;23.70;95.70;;;;;;5112563;28;20452;-55
2021/06/18 05:52:03;;;;;;;15.23;14.07;;;23.80;95.60;;;;;;5115002;28;20449;-55
2021/06/18 05:54:30;;;;;;;14.57;13.10;;;23.90;95.70;;;;;;5114264;28;20441;-56
2021/06/18 05:56:57;;;;;;;12.77;11.67;;;24.00;95.30;;;;;;5106907;28;20515;-56
2021/06/18 05:59:24;;;;;;;14.07;12.83;;;24.10;95.40;;;;;;5096211;28;20819;-56
2021/06/18 06:01:51;;;;;;;14.47;13.27;;;24.30;95.00;;;;;;5095231;28;20649;-56
2021/06/18 06:04:19;;;;;;;15.00;13.47;;;24.60;94.30;;;;;;5104231;28;20831;-56
2021/06/18 06:06:46;;;;;;;13.80;12.60;;;24.70;94.50;;;;;;5094737;28;20431;-56
2021/06/18 06:09:13;;;;;;;13.40;12.40;;;25.00;94.40;;;;;;5080914;28;20467;-56
2021/06/18 06:11:40;;;;;;;13.03;11.90;;;24.90;94.20;;;;;;5108830;28;20797;-57
2021/06/18 06:14:16;;;;;;;15.03;13.80;;;25.10;93.90;;;;;;5106512;28;20795;-57
2021/06/18 06:16:50;;;;;;;13.77;12.77;;;25.60;93.00;;;;;;5110497;28;20461;-55
2021/06/18 06:19:24;;;;;;;15.03;13.63;;;26.00;92.30;;;;;;5111325;28;20784;-55
2021/06/18 06:21:58;;;;;;;14.70;13.60;;;26.30;92.40;;;;;;5112949;28;20481;-56
2021/06/18 06:24:25;;;;;;;13.80;12.80;;;26.50;91.80;;;;;;5115337;28;20449;-55
2021/06/18 06:26:54;;;;;;;16.17;14.87;;;26.70;91.50;;;;;;5114672;28;20449;-57
2021/06/18 06:29:24;;;;;;;16.57;14.83;;;27.30;90.50;;;;;;5113614;28;20484;-54
2021/06/18 06:31:54;;;;;;;14.03;13.00;;;27.90;88.70;;;;;;5112763;28;20493;-55
2021/06/18 06:34:23;;;;;;;14.73;13.63;;;27.40;89.70;;;;;;5114467;28;20472;-55
2021/06/18 06:36:50;;;;;;;14.83;13.67;;;27.60;89.20;;;;;;5115365;28;20628;-57
2021/06/18 06:39:17;;;;;;;14.57;13.30;;;27.60;89.80;;;;;;5117425;28;20454;-54
2021/06/18 06:41:45;;;;;;;14.33;13.10;;;27.80;88.70;;;;;;5109760;28;20442;-53
2021/06/18 06:44:12;;;;;;;17.07;15.37;;;28.00;88.60;;;;;;5109819;28;20511;-56
2021/06/18 06:46:39;;;;;;;15.90;14.70;;;28.90;84.80;;;;;;5110864;28;20442;-56
2021/06/18 06:49:06;;;;;;;15.90;14.57;;;29.10;84.00;;;;;;5102140;28;20538;-56
2021/06/18 06:51:33;;;;;;;15.77;14.37;;;30.10;80.40;;;;;;5112678;28;20479;-55
2021/06/18 06:54:00;;;;;;;14.97;13.83;;;31.70;76.00;;;;;;5115207;28;20446;-54
2021/06/18 06:56:28;;;;;;;15.40;14.33;;;32.90;71.70;;;;;;5116396;28;20497;-56
2021/06/18 06:58:55;;;;;;;16.17;15.17;;;33.80;66.30;;;;;;5109729;27;20458;-57
2021/06/18 07:01:22;;;;;;;13.17;12.27;;;34.00;63.60;;;;;;5113777;28;20487;-56
2021/06/18 07:03:50;;;;;;;14.17;13.27;;;33.20;65.60;;;;;;5114190;28;20452;-55
2021/06/18 07:06:17;;;;;;;14.60;13.37;;;33.60;64.40;;;;;;5107590;28;20769;-55
2021/06/18 07:08:45;;;;;;;14.57;13.37;;;35.40;59.30;;;;;;5113117;28;20688;-57
2021/06/18 07:11:12;;;;;;;14.50;13.27;;;36.90;55.40;;;;;;5105197;28;20439;-58
2021/06/18 07:13:39;;;;;;;14.47;13.10;;;36.50;54.10;;;;;;5116479;28;20487;-56
2021/06/18 07:16:08;;;;;;;14.10;13.10;;;36.60;54.60;;;;;;5113891;28;20456;-56
2021/06/18 07:18:36;;;;;;;13.60;12.60;;;36.70;53.50;;;;;;5111574;28;20442;-56
2021/06/18 07:21:03;;;;;;;14.00;13.13;;;37.30;52.20;;;;;;5114663;28;20484;-57
2021/06/18 07:23:31;;;;;;;14.67;13.57;;;38.70;49.10;;;;;;5114624;28;20514;-57
2021/06/18 07:25:58;;;;;;;15.37;14.37;;;39.40;47.70;;;;;;5110512;28;20456;-56
2021/06/18 07:28:26;;;;;;;14.20;13.20;;;40.50;45.10;;;;;;5112380;28;20858;-56
2021/06/18 07:30:54;;;;;;;14.50;13.30;;;40.40;44.30;;;;;;5114754;28;20457;-57
2021/06/18 07:33:21;;;;;;;14.10;13.23;;;40.10;44.10;;;;;;5112883;28;20505;-57
2021/06/18 07:35:48;;;;;;;12.77;11.87;;;40.80;42.90;;;;;;5105035;28;20442;-56
2021/06/18 07:38:16;;;;;;;14.50;13.70;;;40.90;42.70;;;;;;5118747;28;20629;-56
2021/06/18 07:40:44;;;;;;;13.33;12.53;;;41.90;41.00;;;;;;5114417;28;20524;-56
2021/06/18 07:43:11;;;;;;;13.73;12.93;;;42.50;39.80;;;;;;5113770;27;20721;-58
2021/06/18 07:45:38;;;;;;;14.10;13.30;;;42.00;40.60;;;;;;5116862;28;20513;-58
2021/06/18 07:48:09;;;;;;;14.70;13.90;;;41.00;41.30;;;;;;5114807;28;20474;-56
2021/06/18 07:50:38;;;;;;;12.67;11.80;;;40.80;41.90;;;;;;5117883;28;20612;-59
2021/06/18 07:53:05;;;;;;;14.60;13.50;;;40.20;42.10;;;;;;5115471;28;20440;-57
2021/06/18 07:55:33;;;;;;;13.63;12.83;;;40.30;42.10;;;;;;5118212;28;20448;-57
2021/06/18 07:58:01;;;;;;;12.90;12.20;;;39.50;43.00;;;;;;5112632;27;20438;-57
2021/06/18 08:00:28;;;;;;;13.63;12.83;;;38.10;45.50;;;;;;5116192;28;20648;-58
2021/06/18 08:02:55;;;;;;;14.57;13.50;;;38.00;45.40;;;;;;5115073;28;20492;-57
2021/06/18 08:05:23;;;;;;;13.00;12.10;;;38.20;45.40;;;;;;5118281;28;20470;-56
2021/06/18 08:07:50;;;;;;;13.43;12.63;;;39.20;44.10;;;;;;5112282;28;20474;-56
2021/06/18 08:10:18;;;;;;;12.63;11.87;;;39.00;44.00;;;;;;5117040;28;20513;-57
2021/06/18 08:12:47;;;;;;;15.67;13.93;;;37.90;46.40;;;;;;5108597;28;20476;-56
2021/06/18 08:15:16;;;;;;;13.17;12.27;;;38.90;44.30;;;;;;5118487;28;20510;-57
2021/06/18 08:17:46;;;;;;;14.67;13.43;;;38.80;43.90;;;;;;5113508;28;20465;-56
2021/06/18 08:20:16;;;;;;;13.90;13.13;;;39.20;44.10;;;;;;5113062;28;20450;-56
2021/06/18 08:22:44;;;;;;;12.83;12.00;;;39.80;43.00;;;;;;5115498;27;20426;-57
2021/06/18 08:25:11;;;;;;;14.33;13.20;;;39.80;42.20;;;;;;5111998;28;20506;-56
2021/06/18 08:27:39;;;;;;;12.93;12.13;;;39.60;43.30;;;;;;5115819;28;20485;-57
2021/06/18 08:30:07;;;;;;;14.00;13.10;;;38.80;44.20;;;;;;5114249;28;20500;-58
2021/06/18 08:32:52;;;;;;;13.20;12.40;;;40.20;43.10;;;;;;5118004;28;20762;-58
2021/06/18 08:35:21;;;;;;;13.77;12.83;;;40.50;41.60;;;;;;5113457;28;20459;-59
2021/06/18 08:37:49;;;;;;;13.43;12.63;;;40.80;39.40;;;;;;5114018;28;20507;-59
2021/06/18 08:40:17;;;;;;;13.27;12.47;;;40.60;39.50;;;;;;5116541;28;20442;-58
2021/06/18 08:42:46;;;;;;;14.60;13.90;;;40.60;39.60;;;;;;5114858;28;20453;-59
2021/06/18 08:45:13;;;;;;;13.83;13.03;;;40.50;40.20;;;;;;5116632;28;20501;-57
2021/06/18 08:47:43;;;;;;;15.50;14.50;;;42.60;38.10;;;;;;5110123;28;20438;-56
2021/06/18 08:50:14;;;;;;;13.80;13.00;;;42.60;37.50;;;;;;5115972;28;20873;-57
2021/06/18 08:52:45;;;;;;;13.50;12.80;;;41.20;39.00;;;;;;5116482;28;20772;-56
2021/06/18 08:55:18;;;;;;;14.37;13.67;;;43.40;37.00;;;;;;5108393;28;21044;-57
2021/06/18 08:57:49;;;;;;;14.70;13.90;;;44.10;35.70;;;;;;5114029;28;20638;-58
2021/06/18 09:00:18;;;;;;;14.43;13.70;;;42.20;36.20;;;;;;5113809;28;20446;-57
2021/06/18 09:02:46;;;;;;;14.33;13.60;;;41.10;37.50;;;;;;5114886;28;20438;-58
2021/06/18 09:05:14;;;;;;;15.13;14.33;;;43.30;35.70;;;;;;5110820;28;20438;-58
2021/06/18 09:08:00;;;;;;;14.00;13.30;;;41.80;35.40;;;;;;5104450;27;20443;-57
2021/06/18 09:10:40;;;;;;;13.33;12.63;;;42.70;35.10;;;;;;5110936;28;20499;-59
2021/06/18 09:13:11;;;;;;;13.93;13.13;;;42.70;35.20;;;;;;5111563;28;20643;-58
2021/06/18 09:15:41;;;;;;;12.90;12.30;;;41.50;36.80;;;;;;5116697;28;20449;-57
2021/06/18 09:18:40;;;;;;;13.47;12.73;;;41.40;36.90;;;;;;5113055;28;20710;-58
2021/06/18 09:21:10;;;;;;;13.73;13.03;;;40.70;37.90;;;;;;5114718;28;20496;-57
2021/06/18 09:23:47;;;;;;;13.47;12.77;;;40.90;37.20;;;;;;5112943;28;20529;-59
2021/06/18 09:26:23;;;;;;;12.40;11.80;;;41.90;35.60;;;;;;5111422;28;20442;-58
2021/06/18 09:29:18;;;;;;;12.73;12.13;;;42.70;34.10;;;;;;5107859;28;20487;-57
2021/06/18 09:31:56;;;;;;;12.43;11.73;;;42.40;33.30;;;;;;5110108;28;20776;-57
2021/06/18 09:34:38;;;;;;;12.03;11.43;;;40.60;35.00;;;;;;5116306;28;20468;-59
2021/06/18 09:37:22;;;;;;;13.00;12.20;;;39.40;36.70;;;;;;5110539;28;20560;-58
2021/06/18 09:40:08;;;;;;;12.67;11.97;;;38.00;38.90;;;;;;5114748;28;20442;-58
2021/06/18 09:42:48;;;;;;;12.53;11.80;;;36.30;40.70;;;;;;5110782;28;20531;-58
2021/06/18 09:45:18;;;;;;;10.87;10.37;;;34.80;42.60;;;;;;5102946;28;20441;-58
2021/06/18 09:47:46;;;;;;;11.27;10.57;;;33.40;45.00;;;;;;5114164;28;20438;-58
2021/06/18 09:50:13;;;;;;;11.00;10.30;;;33.20;45.40;;;;;;5097017;28;20591;-57
2021/06/18 09:52:44;;;;;;;12.93;12.13;;;33.20;45.20;;;;;;5111093;28;20502;-58
2021/06/18 09:55:23;;;;;;;10.23;9.73;;;33.40;46.30;;;;;;5109015;28;20442;-58
2021/06/18 09:57:54;;;;;;;11.20;10.50;;;33.40;45.40;;;;;;5112332;28;20481;-58
2021/06/18 10:00:24;;;;;;;11.27;10.37;;;33.40;46.30;;;;;;5116127;28;20447;-58
2021/06/18 10:02:54;;;;;;;11.03;10.33;;;33.60;46.10;;;;;;5115238;28;20498;-57
2021/06/18 10:05:36;;;;;;;12.53;11.63;;;33.60;46.30;;;;;;5116319;28;20450;-58
2021/06/18 10:08:04;;;;;;;11.40;10.80;;;33.50;46.70;;;;;;5115719;28;20430;-58
2021/06/18 10:10:33;;;;;;;11.27;10.63;;;33.40;45.10;;;;;;5106147;28;20545;-59
2021/06/18 10:13:02;;;;;;;10.90;10.20;;;33.10;46.10;;;;;;5110501;28;20439;-59
2021/06/18 10:15:32;;;;;;;11.10;10.60;;;33.10;45.90;;;;;;5120587;28;20441;-59
2021/06/18 10:17:59;;;;;;;10.90;10.30;;;33.10;46.60;;;;;;5115417;28;20481;-57
2021/06/18 10:20:29;;;;;;;11.77;11.17;;;32.50;46.50;;;;;;5120322;28;20839;-59
2021/06/18 10:23:00;;;;;;;10.60;9.93;;;32.40;46.90;;;;;;5119241;28;20438;-58
2021/06/18 10:25:49;;;;;;;11.87;11.10;;;32.10;48.70;;;;;;5119613;28;20736;-57
2021/06/18 10:28:34;;;;;;;10.63;9.90;;;32.20;48.90;;;;;;5118156;28;20453;-60
2021/06/18 10:31:07;;;;;;;11.20;10.50;;;32.40;48.00;;;;;;5119623;28;20691;-59
2021/06/18 10:33:38;;;;;;;11.30;10.60;;;32.60;47.50;;;;;;5115055;27;20445;-58
2021/06/18 10:36:06;;;;;;;11.30;10.60;;;32.60;47.90;;;;;;5118930;27;20442;-58
2021/06/18 10:38:39;;;;;;;10.10;9.60;;;32.60;48.50;;;;;;5118561;28;20501;-58
2021/06/18 10:41:18;;;;;;;11.60;10.93;;;32.40;46.80;;;;;;5116097;27;20434;-58
2021/06/18 10:43:47;;;;;;;10.97;10.37;;;32.30;48.50;;;;;;5122151;27;20689;-58
2021/06/18 10:46:29;;;;;;;10.83;10.23;;;32.40;48.40;;;;;;5106170;28;20445;-58
2021/06/18 10:49:00;;;;;;;11.40;10.50;;;32.60;48.20;;;;;;5117578;28;20426;-58
2021/06/18 10:51:27;;;;;;;11.13;10.30;;;32.50;47.90;;;;;;5112622;28;20446;-59
2021/06/18 10:54:07;;;;;;;11.10;10.40;;;32.60;48.20;;;;;;5109815;28;20449;-58
2021/06/18 10:56:47;;;;;;;11.20;10.27;;;32.40;47.80;;;;;;5115718;28;20447;-58
2021/06/18 10:59:17;;;;;;;10.17;9.67;;;32.20;50.10;;;;;;5112884;27;20874;-58
2021/06/18 11:01:44;;;;;;;19.10;17.13;;;32.30;46.40;;;;;;5115155;28;20502;-58
2021/06/18 11:04:12;;;;;;;10.30;9.70;;;32.40;46.60;;;;;;5118842;28;20438;-58
2021/06/18 11:06:49;;;;;;;11.30;10.37;;;32.30;46.30;;;;;;5117754;28;20576;-58
2021/06/18 11:09:49;;;;;;;10.03;9.53;;;32.10;47.20;;;;;;5102000;28;20634;-57
2021/06/18 11:12:26;;;;;;;10.33;9.73;;;32.10;46.90;;;;;;5109226;28;20444;-59
2021/06/18 11:15:22;;;;;;;9.67;9.07;;;32.20;46.80;;;;;;5112191;28;20440;-58
2021/06/18 11:18:16;;;;;;;10.70;10.00;;;32.20;47.50;;;;;;5108725;28;20457;-59
2021/06/18 11:20:49;;;;;;;12.63;11.30;;;32.20;49.00;;;;;;5113653;28;20533;-58
2021/06/18 11:23:23;;;;;;;10.63;10.03;;;32.50;49.30;;;;;;5118809;28;20429;-60
2021/06/18 11:25:52;;;;;;;11.23;10.43;;;32.40;48.30;;;;;;5115039;28;20438;-58
2021/06/18 11:28:23;;;;;;;11.30;10.60;;;32.20;49.90;;;;;;5109994;27;20503;-58
2021/06/18 11:31:13;;;;;;;11.77;11.00;;;32.40;50.50;;;;;;5109674;28;20481;-57
2021/06/18 11:33:47;;;;;;;11.40;10.70;;;32.40;49.20;;;;;;5115132;28;20437;-57
2021/06/18 11:36:20;;;;;;;11.83;11.07;;;32.40;49.30;;;;;;5118978;28;20458;-57
2021/06/18 11:39:09;;;;;;;11.43;10.73;;;32.60;49.80;;;;;;5113939;28;20422;-58
2021/06/18 11:41:41;;;;;;;11.00;10.40;;;32.80;50.00;;;;;;5113253;27;20483;-57
2021/06/18 11:44:09;;;;;;;12.00;11.10;;;32.70;50.90;;;;;;5117011;28;20446;-59
2021/06/18 11:46:37;;;;;;;10.90;10.30;;;32.80;50.10;;;;;;5118297;28;20434;-57
2021/06/18 11:49:25;;;;;;;10.90;10.30;;;32.50;50.60;;;;;;5118467;28;20438;-59
2021/06/18 11:52:03;;;;;;;9.50;8.90;;;32.40;50.10;;;;;;5113195;28;20526;-58
2021/06/18 11:54:36;;;;;;;10.70;10.10;;;32.40;50.30;;;;;;5110163;28;20443;-57
2021/06/18 11:57:12;;;;;;;10.00;9.50;;;32.40;49.80;;;;;;5114712;28;20433;-59
2021/06/18 11:59:41;;;;;;;10.70;10.00;;;32.40;50.20;;;;;;5106270;28;20433;-57
2021/06/18 12:02:19;;;;;;;10.03;9.50;;;32.20;49.80;;;;;;5107408;28;20785;-58
2021/06/18 12:04:58;;;;;;;10.47;9.87;;;32.40;50.80;;;;;;5117745;28;20445;-59
2021/06/18 12:07:33;;;;;;;10.70;10.10;;;32.60;50.40;;;;;;5107056;28;20466;-59
2021/06/18 12:10:03;;;;;;;10.73;10.13;;;32.60;50.50;;;;;;5116013;28;20477;-58
2021/06/18 12:12:42;;;;;;;9.10;8.57;;;32.40;50.70;;;;;;5114505;27;20515;-58
2021/06/18 12:15:22;;;;;;;9.53;9.03;;;30.20;48.90;;;;;;5115504;28;20514;-58
2021/06/18 12:17:50;;;;;;;10.23;9.63;;;32.20;50.80;;;;;;5114900;28;20461;-58
2021/06/18 12:20:23;;;;;;;10.23;9.73;;;32.20;50.30;;;;;;5116800;27;20522;-58
2021/06/18 12:22:50;;;;;;;11.03;10.43;;;32.30;50.20;;;;;;5115388;28;20433;-57
2021/06/18 12:25:17;;;;;;;10.40;9.60;;;32.40;50.30;;;;;;5115700;28;20487;-57
2021/06/18 12:27:45;;;;;;;10.23;9.53;;;32.40;50.80;;;;;;5110514;28;20754;-57
2021/06/18 12:30:16;;;;;;;11.10;10.23;;;32.60;51.10;;;;;;5101540;28;20884;-59
2021/06/18 12:32:44;;;;;;;9.37;8.87;;;32.70;50.60;;;;;;5116194;28;20441;-58
2021/06/18 12:35:13;;;;;;;10.40;9.80;;;32.40;50.10;;;;;;5116042;28;20532;-59
2021/06/18 12:37:42;;;;;;;9.70;8.97;;;32.40;51.50;;;;;;5113553;28;20446;-58
2021/06/18 12:40:20;;;;;;;10.13;9.50;;;32.50;50.20;;;;;;5115310;28;20505;-58
2021/06/18 12:42:52;;;;;;;10.17;9.67;;;32.60;50.30;;;;;;5115240;28;20452;-57
2021/06/18 12:45:31;;;;;;;10.33;9.77;;;32.30;50.30;;;;;;5118213;28;20434;-58
2021/06/18 12:48:34;;;;;;;9.60;9.00;;;32.50;49.70;;;;;;5110777;28;20499;-59